createdAt,value
2022-10-05T00:00:31.683Z,26.67
2022-10-05T00:02:53.923Z,26.23
2022-10-05T00:04:56.631Z,22.95
2022-10-05T00:07:02.455Z,22.73
2022-10-05T00:09:10.693Z,25.25
2022-10-05T00:11:13.215Z,24.00
2022-10-05T00:13:15.882Z,23.70
2022-10-05T00:15:18.643Z,28.13
2022-10-05T00:19:25.404Z,22.20
2022-10-05T00:21:28.921Z,25.25
2022-10-05T00:23:31.630Z,32.30
2022-10-05T00:25:33.156Z,21.50
2022-10-05T00:27:39.493Z,23.58
2022-10-05T00:29:41.236Z,23.85
2022-10-05T00:31:42.849Z,25.75
2022-10-05T00:33:44.495Z,21.77
2022-10-05T00:35:46.356Z,25.67
2022-10-05T00:37:52.832Z,28.90
2022-10-05T00:39:54.422Z,28.00
2022-10-05T00:41:56.132Z,27.15
2022-10-05T00:44:00.732Z,27.10
2022-10-05T00:46:07.904Z,30.15
2022-10-05T00:48:17.499Z,25.55
2022-10-05T00:50:37.471Z,21.23
2022-10-05T00:52:55.708Z,21.88
2022-10-05T00:55:10.711Z,28.60
2022-10-05T00:57:15.117Z,26.10
2022-10-05T00:59:36.899Z,25.15
2022-10-05T01:01:57.532Z,23.17
2022-10-05T01:04:14.087Z,22.92
2022-10-05T01:06:18.349Z,23.90
2022-10-05T01:08:38.496Z,20.20
2022-10-05T01:10:50.594Z,23.85
2022-10-05T01:13:11.119Z,22.38
2022-10-05T01:15:12.829Z,24.08
2022-10-05T01:17:17.091Z,24.17
2022-10-05T01:19:27.847Z,19.88
2022-10-05T01:21:31.967Z,28.10
2022-10-05T01:24:09.269Z,26.60
2022-10-05T01:26:34.511Z,25.23
2022-10-05T01:28:45.437Z,22.98
2022-10-05T01:30:56.858Z,25.83
2022-10-05T01:33:13.666Z,22.73
2022-10-05T01:35:15.503Z,20.35
2022-10-05T01:37:25.429Z,26.67
2022-10-05T01:39:37.771Z,20.75
2022-10-05T01:41:54.248Z,21.77
2022-10-05T01:44:02.467Z,24.48
2022-10-05T01:46:15.049Z,23.88
2022-10-05T01:48:16.773Z,23.35
2022-10-05T01:50:33.235Z,21.60
2022-10-05T01:52:53.511Z,23.25
2022-10-05T01:55:00.879Z,29.10
2022-10-05T01:57:17.564Z,23.75
2022-10-05T01:59:26.838Z,25.05
2022-10-05T02:01:28.682Z,24.55
2022-10-05T02:03:33.255Z,25.77
2022-10-05T02:05:41.074Z,22.50
2022-10-05T02:07:49.409Z,22.73
2022-10-05T02:09:55.391Z,25.73
2022-10-05T02:12:00.005Z,24.60
2022-10-05T02:14:22.497Z,17.85
2022-10-05T02:16:42.374Z,24.73
2022-10-05T02:18:48.459Z,21.60
2022-10-05T02:20:51.472Z,29.55
2022-10-05T02:22:54.647Z,24.95
2022-10-05T02:25:01.351Z,24.20
2022-10-05T02:27:03.807Z,32.95
2022-10-05T02:29:10.348Z,29.30
2022-10-05T02:31:14.179Z,24.58
2022-10-05T02:33:23.444Z,28.27
2022-10-05T02:35:25.623Z,27.48
2022-10-05T02:37:27.186Z,25.67
2022-10-05T02:39:45.367Z,25.15
2022-10-05T02:41:47.490Z,27.05
2022-10-05T02:43:53.616Z,26.93
2022-10-05T02:46:08.119Z,30.23
2022-10-05T02:48:09.653Z,24.60
2022-10-05T02:50:29.521Z,27.52
2022-10-05T02:52:57.826Z,24.33
2022-10-05T02:55:00.664Z,23.63
2022-10-05T02:57:21.139Z,25.92
2022-10-05T02:59:52.321Z,30.10
2022-10-05T03:02:01.953Z,25.00
2022-10-05T03:04:18.854Z,20.70
2022-10-05T03:06:22.608Z,24.88
2022-10-05T03:08:24.909Z,26.73
2022-10-05T03:10:45.527Z,28.40
2022-10-05T03:13:09.598Z,27.67
2022-10-05T03:15:29.630Z,27.75
2022-10-05T03:17:37.511Z,22.27
2022-10-05T03:19:45.232Z,24.77
2022-10-05T03:22:00.720Z,23.00
2022-10-05T03:24:05.093Z,24.90
2022-10-05T03:26:33.283Z,24.40
2022-10-05T03:28:43.899Z,25.08
2022-10-05T03:30:54.737Z,27.00
2022-10-05T03:33:22.948Z,21.88
2022-10-05T03:35:43.473Z,29.70
2022-10-05T03:37:57.187Z,29.70
2022-10-05T03:40:05.910Z,23.05
2022-10-05T03:42:18.168Z,29.08
2022-10-05T03:44:19.670Z,28.85
2022-10-05T03:46:30.549Z,28.98
2022-10-05T03:48:34.960Z,24.65
2022-10-05T03:50:36.481Z,25.15
2022-10-05T03:52:41.246Z,25.42
2022-10-05T03:55:02.298Z,26.15
2022-10-05T03:57:06.805Z,28.17
2022-10-05T03:59:22.933Z,26.90
2022-10-05T04:01:27.441Z,26.67
2022-10-05T04:03:32.718Z,33.30
2022-10-05T04:05:42.383Z,26.75
2022-10-05T04:07:56.676Z,24.38
2022-10-05T04:10:00.510Z,27.42
2022-10-05T04:12:15.288Z,24.13
2022-10-05T04:14:25.660Z,25.77
2022-10-05T04:16:47.304Z,26.30
2022-10-05T04:19:02.466Z,24.85
2022-10-05T04:21:10.534Z,29.05
2022-10-05T04:23:14.928Z,27.92
2022-10-05T04:25:18.455Z,24.83
2022-10-05T04:29:21.341Z,25.80
2022-10-05T04:31:55.618Z,27.08
2022-10-05T04:36:11.183Z,22.70
2022-10-05T04:38:31.633Z,30.65
2022-10-05T04:40:48.295Z,28.15
2022-10-05T04:43:13.008Z,24.08
2022-10-05T04:45:21.406Z,25.17
2022-10-05T04:47:25.770Z,22.30
2022-10-05T04:49:45.811Z,21.05
2022-10-05T04:51:50.976Z,22.65
2022-10-05T04:53:52.887Z,27.92
2022-10-05T04:56:03.160Z,26.80
2022-10-05T04:58:07.834Z,22.60
2022-10-05T05:00:15.644Z,28.17
2022-10-05T05:02:24.331Z,26.48
2022-10-05T05:04:48.302Z,25.88
2022-10-05T05:07:05.210Z,24.45
2022-10-05T05:09:17.528Z,25.75
2022-10-05T05:11:24.517Z,27.38
2022-10-05T05:14:04.960Z,34.00
2022-10-05T05:16:06.547Z,26.30
2022-10-05T05:18:26.650Z,24.55
2022-10-05T05:20:40.275Z,25.33
2022-10-05T05:22:59.733Z,30.65
2022-10-05T05:25:20.121Z,27.60
2022-10-05T05:27:40.599Z,24.95
2022-10-05T05:29:52.883Z,23.30
2022-10-05T05:32:00.942Z,21.67
2022-10-05T05:34:02.427Z,25.67
2022-10-05T05:36:25.615Z,25.17
2022-10-05T05:40:40.145Z,23.17
2022-10-05T05:42:47.689Z,27.30
2022-10-05T05:44:53.909Z,22.45
2022-10-05T05:47:05.023Z,29.33
2022-10-05T05:49:18.694Z,24.08
2022-10-05T05:51:25.451Z,26.25
2022-10-05T05:53:33.900Z,25.00
2022-10-05T05:55:39.487Z,21.73
2022-10-05T05:57:43.551Z,23.08
2022-10-05T06:00:05.563Z,22.13
2022-10-05T06:02:11.328Z,24.10
2022-10-05T06:04:15.739Z,28.52
2022-10-05T06:06:17.763Z,20.27
2022-10-05T06:08:34.654Z,25.05
2022-10-05T06:10:41.493Z,26.63
2022-10-05T06:12:45.422Z,23.42
2022-10-05T06:14:49.720Z,25.77
2022-10-05T06:17:14.787Z,24.23
2022-10-05T06:19:17.550Z,26.83
2022-10-05T06:21:37.687Z,24.90
2022-10-05T06:24:12.115Z,21.35
2022-10-05T06:26:39.608Z,26.77
2022-10-05T06:28:42.179Z,20.75
2022-10-05T06:31:02.643Z,19.67
2022-10-05T06:33:04.209Z,24.15
2022-10-05T06:35:05.912Z,18.80
2022-10-05T06:37:12.788Z,17.92
2022-10-05T06:39:17.337Z,26.35
2022-10-05T06:41:19.064Z,24.25
2022-10-05T06:43:39.195Z,22.33
2022-10-05T06:45:49.704Z,19.65
2022-10-05T06:47:52.038Z,32.20
2022-10-05T06:49:58.506Z,21.92
2022-10-05T06:52:03.452Z,28.08
2022-10-05T06:54:05.228Z,20.30
2022-10-05T06:56:06.740Z,24.63
2022-10-05T06:58:27.856Z,22.55
2022-10-05T07:00:34.850Z,28.23
2022-10-05T07:02:39.822Z,24.73
2022-10-05T07:05:04.499Z,21.05
2022-10-05T07:07:26.462Z,20.30
2022-10-05T07:09:35.655Z,18.80
2022-10-05T07:11:59.607Z,19.75
2022-10-05T07:14:02.743Z,22.83
2022-10-05T07:16:07.132Z,19.40
2022-10-05T07:18:26.801Z,27.60
2022-10-05T07:20:34.690Z,22.60
2022-10-05T07:22:48.551Z,17.25
2022-10-05T07:25:04.650Z,19.63
2022-10-05T07:27:12.647Z,30.48
2022-10-05T07:29:14.195Z,21.70
2022-10-05T07:31:21.833Z,20.58
2022-10-05T07:33:46.939Z,16.08
2022-10-05T07:36:20.562Z,19.10
2022-10-05T07:38:32.610Z,27.67
2022-10-05T07:40:37.973Z,21.63
2022-10-05T07:42:48.784Z,14.93
2022-10-05T07:44:55.713Z,18.08
2022-10-05T07:47:03.664Z,22.05
2022-10-05T07:49:11.302Z,15.55
2022-10-05T07:51:18.990Z,19.30
2022-10-05T07:53:35.379Z,20.90
2022-10-05T07:55:38.847Z,16.58
2022-10-05T07:57:46.552Z,19.35
2022-10-05T07:59:51.355Z,14.55
2022-10-05T08:01:55.449Z,14.55
2022-10-05T08:03:57.054Z,16.15
2022-10-05T08:06:00.138Z,17.25
2022-10-05T08:08:12.362Z,19.27
2022-10-05T08:10:26.127Z,14.45
2022-10-05T08:13:03.177Z,17.80
2022-10-05T08:15:13.355Z,14.68
2022-10-05T08:17:25.471Z,13.48
2022-10-05T08:19:39.602Z,14.05
2022-10-05T08:21:47.974Z,14.45
2022-10-05T08:24:04.124Z,17.52
2022-10-05T08:26:41.242Z,11.90
2022-10-05T08:28:47.567Z,14.93
2022-10-05T08:31:07.438Z,17.42
2022-10-05T08:33:15.844Z,16.70
2022-10-05T08:35:34.190Z,13.57
2022-10-05T08:37:39.394Z,17.65
2022-10-05T08:39:48.874Z,15.07
2022-10-05T08:41:53.192Z,17.10
2022-10-05T08:44:13.307Z,15.27
2022-10-05T08:46:30.550Z,15.90
2022-10-05T08:48:47.200Z,19.73
2022-10-05T08:51:07.536Z,12.23
2022-10-05T08:53:12.304Z,14.27
2022-10-05T08:55:16.848Z,13.85
2022-10-05T08:57:24.813Z,13.48
2022-10-05T08:59:45.460Z,12.13
2022-10-05T09:01:47.216Z,15.32
2022-10-05T09:03:55.163Z,15.20
2022-10-05T09:06:15.829Z,13.07
2022-10-05T09:08:36.007Z,11.82
2022-10-05T09:10:57.529Z,11.52
2022-10-05T09:12:59.306Z,17.70
2022-10-05T09:15:25.725Z,13.82
2022-10-05T09:17:28.328Z,18.40
2022-10-05T09:19:32.924Z,8.75
2022-10-05T09:21:43.319Z,10.52
2022-10-05T09:23:49.023Z,13.40
2022-10-05T09:26:14.314Z,14.88
2022-10-05T09:28:34.453Z,12.02
2022-10-05T09:30:38.857Z,15.85
2022-10-05T09:32:40.763Z,15.43
2022-10-05T09:34:55.686Z,12.68
2022-10-05T09:37:12.651Z,13.75
2022-10-05T09:39:29.724Z,16.05
2022-10-05T09:41:50.214Z,20.42
2022-10-05T09:44:15.764Z,16.15
2022-10-05T09:46:32.701Z,11.18
2022-10-05T09:48:40.435Z,12.10
2022-10-05T09:50:42.051Z,15.27
2022-10-05T09:53:02.280Z,14.93
2022-10-05T09:55:23.932Z,16.17
2022-10-05T09:57:25.492Z,12.23
2022-10-05T09:59:39.534Z,13.65
2022-10-05T10:01:59.699Z,16.63
2022-10-05T10:04:24.797Z,9.60
2022-10-05T10:06:46.486Z,14.05
2022-10-05T10:09:07.619Z,12.07
2022-10-05T10:11:15.224Z,13.05
2022-10-05T10:13:24.285Z,15.18
2022-10-05T10:15:34.696Z,9.93
2022-10-05T10:17:51.735Z,7.65
2022-10-05T10:20:01.082Z,9.88
2022-10-05T10:22:05.550Z,10.77
2022-10-05T10:24:14.718Z,10.10
2022-10-05T10:26:33.187Z,11.60
2022-10-05T10:28:53.597Z,12.52
2022-10-05T10:30:57.910Z,11.85
2022-10-05T10:32:59.660Z,17.25
2022-10-05T10:35:04.356Z,10.02
2022-10-05T10:37:06.141Z,10.38
2022-10-05T10:39:07.875Z,11.53
2022-10-05T10:41:26.324Z,9.88
2022-10-05T10:43:46.390Z,12.50
2022-10-05T10:46:14.555Z,12.18
2022-10-05T10:48:19.211Z,8.55
2022-10-05T10:50:23.990Z,10.38
2022-10-05T10:52:25.882Z,9.07
2022-10-05T10:54:42.687Z,20.30
2022-10-05T10:57:00.680Z,16.55
2022-10-05T10:59:02.673Z,10.38
2022-10-05T11:01:10.460Z,11.75
2022-10-05T11:03:23.950Z,14.25
2022-10-05T11:05:25.875Z,11.55
2022-10-05T11:07:39.552Z,11.30
2022-10-05T11:09:41.732Z,9.32
2022-10-05T11:11:53.316Z,11.05
2022-10-05T11:14:13.716Z,8.23
2022-10-05T11:16:27.225Z,10.35
2022-10-05T11:18:29.056Z,13.18
2022-10-05T11:20:49.143Z,9.38
2022-10-05T11:22:56.100Z,15.32
2022-10-05T11:25:07.044Z,8.55
2022-10-05T11:27:09.628Z,10.15
2022-10-05T11:29:13.960Z,20.20
2022-10-05T11:31:37.204Z,9.75
2022-10-05T11:33:57.598Z,12.57
2022-10-05T11:36:17.771Z,12.07
2022-10-05T11:38:23.879Z,8.02
2022-10-05T11:40:42.416Z,15.13
2022-10-05T11:42:44.251Z,12.38
2022-10-05T11:45:06.236Z,11.95
2022-10-05T11:47:16.889Z,10.68
2022-10-05T11:49:18.535Z,8.43
2022-10-05T11:51:35.372Z,7.70
2022-10-05T11:53:46.810Z,9.10
2022-10-05T11:56:04.126Z,12.23
2022-10-05T11:58:10.941Z,8.75
2022-10-05T12:00:16.100Z,9.95
2022-10-05T12:02:38.869Z,9.88
2022-10-05T12:04:49.455Z,7.75
2022-10-05T12:06:53.752Z,13.43
2022-10-05T12:09:13.396Z,10.63
2022-10-05T12:11:27.360Z,9.85
2022-10-05T12:13:52.187Z,9.30
2022-10-05T12:16:04.724Z,7.55
2022-10-05T12:18:21.302Z,23.17
2022-10-05T12:20:28.285Z,9.55
2022-10-05T12:22:41.883Z,7.57
2022-10-05T12:24:54.179Z,7.95
2022-10-05T12:26:59.246Z,9.05
2022-10-05T12:29:08.075Z,10.38
2022-10-05T12:31:10.539Z,12.25
2022-10-05T12:33:21.317Z,10.45
2022-10-05T12:35:47.411Z,13.23
2022-10-05T12:37:51.649Z,10.02
2022-10-05T12:40:22.756Z,14.07
2022-10-05T12:42:48.252Z,11.35
2022-10-05T12:45:08.855Z,12.45
2022-10-05T12:47:35.253Z,14.10
2022-10-05T12:49:55.002Z,8.27
2022-10-05T12:52:00.606Z,12.07
2022-10-05T12:54:16.571Z,10.38
2022-10-05T12:56:24.305Z,11.50
2022-10-05T12:58:33.683Z,13.35
2022-10-05T13:00:39.337Z,10.32
2022-10-05T13:02:51.294Z,8.60
2022-10-05T13:04:56.106Z,11.85
2022-10-05T13:06:57.619Z,13.48
2022-10-05T13:09:03.804Z,13.65
2022-10-05T13:11:14.846Z,12.48
2022-10-05T13:13:28.856Z,12.70
2022-10-05T13:15:30.467Z,11.65
2022-10-05T13:17:41.463Z,12.38
2022-10-05T13:19:47.643Z,9.80
2022-10-05T13:22:01.952Z,10.50
2022-10-05T13:24:07.025Z,13.40
2022-10-05T13:26:19.412Z,13.77
2022-10-05T13:28:21.655Z,12.85
2022-10-05T13:30:23.565Z,13.85
2022-10-05T13:32:27.143Z,14.52
2022-10-05T13:34:31.790Z,12.07
2022-10-05T13:36:45.911Z,17.02
2022-10-05T13:38:50.352Z,16.45
2022-10-05T13:41:03.322Z,14.65
2022-10-05T13:45:18.990Z,10.45
2022-10-05T13:47:39.571Z,14.35
2022-10-05T13:51:58.625Z,12.20
2022-10-05T13:54:00.132Z,13.15
2022-10-05T13:56:01.980Z,16.65
2022-10-05T13:58:15.461Z,10.80
2022-10-05T14:00:26.268Z,11.63
2022-10-05T14:02:33.764Z,11.35
2022-10-05T14:04:46.701Z,17.33
2022-10-05T14:06:48.782Z,14.73
2022-10-05T14:08:54.091Z,14.13
2022-10-05T14:10:58.105Z,12.02
2022-10-05T14:13:01.029Z,14.55
2022-10-05T14:15:15.783Z,13.88
2022-10-05T14:17:32.903Z,13.95
2022-10-05T14:19:48.585Z,11.80
2022-10-05T14:21:53.150Z,14.57
2022-10-05T14:23:58.677Z,12.10
2022-10-05T14:26:04.102Z,15.70
2022-10-05T14:28:12.402Z,15.52
2022-10-05T14:30:14.198Z,13.95
2022-10-05T14:32:18.860Z,13.65
2022-10-05T14:34:27.326Z,15.75
2022-10-05T14:36:33.650Z,17.27
2022-10-05T14:38:51.849Z,11.95
2022-10-05T14:41:25.414Z,11.57
2022-10-05T14:43:26.963Z,19.23
2022-10-05T14:45:30.118Z,17.00
2022-10-05T14:47:32.219Z,15.20
2022-10-05T14:49:36.988Z,18.15
2022-10-05T14:51:38.870Z,11.15
2022-10-05T14:53:43.720Z,15.43
2022-10-05T14:55:45.245Z,14.32
2022-10-05T14:57:46.898Z,15.98
2022-10-05T14:59:54.915Z,14.02
2022-10-05T15:01:59.107Z,15.05
2022-10-05T15:04:10.351Z,15.20
2022-10-05T15:06:30.694Z,17.20
2022-10-05T15:08:50.803Z,15.75
2022-10-05T15:10:55.951Z,28.80
2022-10-05T15:13:12.101Z,11.30
2022-10-05T15:15:37.040Z,22.25
2022-10-05T15:17:53.523Z,16.80
2022-10-05T15:19:58.358Z,14.95
2022-10-05T15:22:09.417Z,20.02
2022-10-05T15:24:40.126Z,15.73
2022-10-05T15:26:49.018Z,17.35
2022-10-05T15:28:54.356Z,15.45
2022-10-05T15:30:55.842Z,13.07
2022-10-05T15:33:09.250Z,11.15
2022-10-05T15:35:16.751Z,13.73
2022-10-05T15:37:18.357Z,11.10
2022-10-05T15:39:35.963Z,15.63
2022-10-05T15:41:47.725Z,10.13
2022-10-05T15:44:07.799Z,14.18
2022-10-05T15:46:18.266Z,12.75
2022-10-05T15:48:36.322Z,12.70
2022-10-05T15:50:45.665Z,19.25
2022-10-05T15:52:58.874Z,12.45
2022-10-05T15:55:08.041Z,17.20
2022-10-05T15:57:20.910Z,16.23
2022-10-05T15:59:38.583Z,13.57
2022-10-05T16:01:47.127Z,13.10
2022-10-05T16:03:51.161Z,15.85
2022-10-05T16:06:15.155Z,14.13
2022-10-05T16:08:41.287Z,15.18
2022-10-05T16:10:43.977Z,15.23
2022-10-05T16:12:45.823Z,14.07
2022-10-05T16:15:16.169Z,16.15
2022-10-05T16:17:29.749Z,15.73
2022-10-05T16:19:43.373Z,16.77
2022-10-05T16:23:47.384Z,14.65
2022-10-05T16:26:13.193Z,15.00
2022-10-05T16:28:15.703Z,14.27
2022-10-05T16:30:21.623Z,11.82
2022-10-05T16:32:30.276Z,15.95
2022-10-05T16:34:37.952Z,16.55
2022-10-05T16:37:02.668Z,16.35
2022-10-05T16:39:14.190Z,11.82
2022-10-05T16:41:23.871Z,14.05
2022-10-05T16:43:25.738Z,16.42
2022-10-05T16:45:44.665Z,13.10
2022-10-05T16:47:56.441Z,18.45
2022-10-05T16:50:16.745Z,17.25
2022-10-05T16:52:21.296Z,17.13
2022-10-05T16:54:35.832Z,21.38
2022-10-05T16:57:01.249Z,18.80
2022-10-05T16:59:04.177Z,14.32
2022-10-05T17:01:10.768Z,22.30
2022-10-05T17:03:27.402Z,18.15
2022-10-05T17:05:29.174Z,18.08
2022-10-05T17:07:40.858Z,19.83
2022-10-05T17:09:49.244Z,18.58
2022-10-05T17:11:57.316Z,20.65
2022-10-05T17:14:07.886Z,17.52
2022-10-05T17:16:28.262Z,21.35
2022-10-05T17:18:50.030Z,18.85
2022-10-05T17:21:10.748Z,22.45
2022-10-05T17:23:15.240Z,20.35
2022-10-05T17:25:24.477Z,19.77
2022-10-05T17:27:32.368Z,16.60
2022-10-05T17:29:43.115Z,23.65
2022-10-05T17:32:01.849Z,19.30
2022-10-05T17:34:10.446Z,16.73
2022-10-05T17:36:16.914Z,18.70
2022-10-05T17:38:40.537Z,21.23
2022-10-05T17:41:03.239Z,17.63
2022-10-05T17:43:17.116Z,20.33
2022-10-05T17:45:19.382Z,17.65
2022-10-05T17:47:42.041Z,15.57
2022-10-05T17:50:08.322Z,19.15
2022-10-05T17:52:41.084Z,17.00
2022-10-05T17:55:04.646Z,19.50
2022-10-05T17:59:09.038Z,16.90
2022-10-05T18:01:17.058Z,15.35
2022-10-05T18:03:39.187Z,16.02
2022-10-05T18:05:41.000Z,16.60
2022-10-05T18:07:48.692Z,17.92
2022-10-05T18:09:53.917Z,21.55
2022-10-05T18:11:55.756Z,18.92
2022-10-05T18:14:29.795Z,17.70
2022-10-05T18:16:50.188Z,26.88
2022-10-05T18:18:57.526Z,17.35
2022-10-05T18:21:22.731Z,13.75
2022-10-05T18:23:25.883Z,15.75
2022-10-05T18:25:49.249Z,21.65
2022-10-05T18:27:50.842Z,21.02
2022-10-05T18:30:11.066Z,15.45
2022-10-05T18:32:36.254Z,14.05
2022-10-05T18:34:49.318Z,13.45
2022-10-05T18:39:11.491Z,18.73
2022-10-05T18:41:15.907Z,16.23
2022-10-05T18:43:29.004Z,16.02
2022-10-05T18:47:37.439Z,16.33
2022-10-05T18:49:49.333Z,12.50
2022-10-05T18:51:54.927Z,19.77
2022-10-05T18:54:15.402Z,14.35
2022-10-05T18:56:30.029Z,16.50
2022-10-05T18:59:01.404Z,13.60
2022-10-05T19:01:21.657Z,22.83
2022-10-05T19:03:29.193Z,15.60
2022-10-05T19:05:49.801Z,17.95
2022-10-05T19:07:51.434Z,14.65
2022-10-05T19:10:03.570Z,19.77
2022-10-05T19:12:18.084Z,15.37
2022-10-05T19:14:27.004Z,14.60
2022-10-05T19:16:47.735Z,17.58
2022-10-05T19:18:59.902Z,11.93
2022-10-05T19:21:25.120Z,16.10
2022-10-05T19:23:47.078Z,16.15
2022-10-05T19:25:54.811Z,18.48
2022-10-05T19:28:17.671Z,16.20
2022-10-05T19:30:27.210Z,15.40
2022-10-05T19:32:52.735Z,16.73
2022-10-05T19:34:54.754Z,18.33
2022-10-05T19:36:58.240Z,16.42
2022-10-05T19:39:06.414Z,19.33
2022-10-05T19:41:17.099Z,16.65
2022-10-05T19:43:38.659Z,13.23
2022-10-05T19:45:52.426Z,12.43
2022-10-05T19:48:00.272Z,14.65
2022-10-05T19:50:05.955Z,13.75
2022-10-05T19:52:21.034Z,16.05
2022-10-05T19:54:26.797Z,15.15
2022-10-05T19:56:32.592Z,11.90
2022-10-05T19:58:38.531Z,12.77
2022-10-05T20:00:42.480Z,19.40
2022-10-05T20:02:44.038Z,21.02
2022-10-05T20:04:49.514Z,11.77
2022-10-05T20:06:51.426Z,19.58
2022-10-05T20:08:54.053Z,15.80
2022-10-05T20:11:05.074Z,15.60
2022-10-05T20:13:08.614Z,17.52
2022-10-05T20:15:35.779Z,15.57
2022-10-05T20:17:56.146Z,14.15
2022-10-05T20:20:23.393Z,12.55
2022-10-05T20:22:27.843Z,20.73
2022-10-05T20:24:31.831Z,13.25
2022-10-05T20:27:02.131Z,17.75
2022-10-05T20:29:03.854Z,16.63
2022-10-05T20:31:06.532Z,12.20
2022-10-05T20:33:14.533Z,18.60
2022-10-05T20:35:17.191Z,16.05
2022-10-05T20:37:18.931Z,12.82
2022-10-05T20:39:21.418Z,15.80
2022-10-05T20:41:22.948Z,16.83
2022-10-05T20:43:24.962Z,15.35
2022-10-05T20:45:26.507Z,15.73
2022-10-05T20:47:28.145Z,13.00
2022-10-05T20:49:36.550Z,16.00
2022-10-05T20:51:40.189Z,15.57
2022-10-05T20:53:41.746Z,15.45
2022-10-05T20:55:43.491Z,14.80
2022-10-05T20:57:46.373Z,15.35
2022-10-05T20:59:47.972Z,18.25
2022-10-05T21:01:49.763Z,14.80
2022-10-05T21:03:51.316Z,17.85
2022-10-05T21:05:52.834Z,17.08
2022-10-05T21:07:54.993Z,18.50
2022-10-05T21:10:00.678Z,13.93
2022-10-05T21:12:03.351Z,19.45
2022-10-05T21:14:05.921Z,18.45
2022-10-05T21:16:13.005Z,17.80
2022-10-05T21:18:15.682Z,18.48
2022-10-05T21:20:17.414Z,16.40
2022-10-05T21:22:19.015Z,13.40
2022-10-05T21:24:20.663Z,14.27
2022-10-05T21:26:22.476Z,15.00
2022-10-05T21:28:24.231Z,14.77
2022-10-05T21:30:26.086Z,20.27
2022-10-05T21:32:28.154Z,20.07
2022-10-05T21:34:29.709Z,18.30
2022-10-05T21:36:32.188Z,13.35
2022-10-05T21:38:33.963Z,17.08
2022-10-05T21:40:35.490Z,15.13
2022-10-05T21:42:37.147Z,18.30
2022-10-05T21:44:39.042Z,17.30
2022-10-05T21:46:40.964Z,21.50
2022-10-05T21:48:42.955Z,17.15
2022-10-05T21:50:45.466Z,26.50
2022-10-05T21:52:47.319Z,15.52
2022-10-05T21:54:49.198Z,18.45
2022-10-05T21:56:52.664Z,23.85
2022-10-05T22:00:55.766Z,16.98
2022-10-05T22:02:57.812Z,19.25
2022-10-05T22:04:59.311Z,15.48
2022-10-05T22:07:01.306Z,20.13
2022-10-05T22:09:03.962Z,16.88
2022-10-05T22:11:10.106Z,14.05
2022-10-05T22:13:11.872Z,18.80
2022-10-05T22:15:13.875Z,15.60
2022-10-05T22:17:22.990Z,13.70
2022-10-05T22:19:24.736Z,17.98
2022-10-05T22:21:26.470Z,17.60
2022-10-05T22:23:28.166Z,18.92
2022-10-05T22:25:33.791Z,22.25
2022-10-05T22:27:35.725Z,16.75
2022-10-05T22:29:37.388Z,19.40
2022-10-05T22:31:39.236Z,19.58
2022-10-05T22:33:41.299Z,16.45
2022-10-05T22:35:43.033Z,16.02
2022-10-05T22:37:44.994Z,21.92
2022-10-05T22:39:46.698Z,18.10
2022-10-05T22:41:48.688Z,20.35
2022-10-05T22:43:51.256Z,17.67
2022-10-05T22:45:53.281Z,14.63
2022-10-05T22:47:54.880Z,22.35
2022-10-05T22:49:56.444Z,18.00
2022-10-05T22:51:58.233Z,16.20
2022-10-05T22:53:59.742Z,16.25
2022-10-05T22:56:08.296Z,18.33
2022-10-05T22:58:10.045Z,15.75
2022-10-05T23:00:12.213Z,18.00
2022-10-05T23:02:14.086Z,14.57
2022-10-05T23:04:15.962Z,17.63
2022-10-05T23:06:18.583Z,14.88
2022-10-05T23:08:20.091Z,18.25
2022-10-05T23:10:21.918Z,17.27
2022-10-05T23:12:23.411Z,20.00
2022-10-05T23:14:24.950Z,17.30
2022-10-05T23:16:27.801Z,16.70
2022-10-05T23:18:29.818Z,19.00
2022-10-05T23:20:31.847Z,17.02
2022-10-05T23:22:37.252Z,15.82
2022-10-05T23:24:38.765Z,18.70
2022-10-05T23:26:40.298Z,18.30
2022-10-05T23:28:46.463Z,16.77
2022-10-05T23:30:48.122Z,18.15
2022-10-05T23:32:49.723Z,18.00
2022-10-05T23:34:51.467Z,15.60
2022-10-05T23:36:52.995Z,18.55
2022-10-05T23:38:54.675Z,15.55
2022-10-05T23:40:58.541Z,13.70
2022-10-05T23:43:00.813Z,15.30
2022-10-05T23:45:02.537Z,20.13
2022-10-05T23:47:04.369Z,14.15
2022-10-05T23:49:05.967Z,18.63
2022-10-05T23:51:10.100Z,15.27
2022-10-05T23:53:12.439Z,18.23
2022-10-05T23:55:14.019Z,17.70
2022-10-05T23:57:16.915Z,17.58
2022-10-05T23:59:18.606Z,17.38
